Holbrook, AZ (86031)

9:08 PM MDT on March 31, 2015 (GMT -0600)
Winslow-Lindbergh Regional | | Change Station
CLOSE
Current Station
Airport
Location: Winslow,
Elevation: 4882 ft
Nearby Weather Stations
Active Advisory: Fire Weather Watch Active Notice: Record Report

Elev 4882 ft 35.03 °N, 110.72 °W | Updated 12 minutes ago

Clear
Clear
66 °F
Feels Like 66 °F
N
13
Wind Variable Wind from SW

Today
High -- | Low -- °F
--% Chance of Precip.
Yesterday
High -- | Low -- °F
Precip. -- in
7:08 AM 7:40 PM
Waxing Gibbous, 90% visible
Pressure 29.86 in
Visibility 10.0 miles
Clouds Clear
Dew Point 27 °F
Humidity 23%
Rainfall 0.00 in
Snow Depth Not available.
UV 0 out of 12
Pollen 10.90 out of 12
Air Quality Not available.
Flu Activity Not available.
METAR KINW 010256Z AUTO 23011KT 10SM CLR 19/M03 A2999 RMK AO2 SLP111 T01891028 53005

More Conditions Fewer Conditions

Pressure 29.86 in
Visibility 10.0 miles
Clouds Clear
Dew Point 27 °F
Humidity 23%
Rainfall 0.00 in
Snow Depth Not available.
UV 0 out of 12
Pollen 10.90 out of 12
Air Quality Not available.
Flu Activity Not available.
METAR KINW 010256Z AUTO 23011KT 10SM CLR 19/M03 A2999 RMK AO2 SLP111 T01891028 53005

More Conditions Fewer Conditions

10-Day Weather Forecast

Almanac

Astronomy

Mar. 31, 2015 Rise Set
Actual Time
Civil Twilight
Nautical Twilight
Astronomical Twilight
Moon
Length of Visible Light
Length of Day
Tomorrow will be .
, % of the Moon is Illuminated

Today's Extremes

State Highs State Lows

Community

WunderPhotos

Upload Photos

1,809,888 photos uploaded!

WunderBlogs® & News

Nearby

Air Quality

  Air Quality AQ Index Pollutant
Not available.

Snow Depth

Station Depth Elevation

Earthquake Activity

City Distance Mag. Time & Date
Minimum magnitude displayed is 2.5.

Coastal Water Temperatures

Place Temperature

Stations

Nearby Weather Stations

Station Location Temp. Windchill Dew Point Humidity Wind Precip. Elev Updated Type
                   
Fire Weather Watch
Statement as of 3:09 PM MDT on March 31, 2015

... Fire Weather Watch in effect from Thursday morning through
Thursday evening for strong winds and low relative humidity...

The National Weather Service in Flagstaff has issued a Fire
Weather Watch for strong winds and low relative humidity... which
is in effect from Thursday morning through Thursday evening.

* Affected area... Mogollon Rim and White Mountains northward to
The Four Corners region.

* Timing... winds increasing through Thursday morning exceeding
critical fire weather thresholds from 10 am Thursday through 8 PM
MST.

* 20 foot winds... southwest to west 20 to 25 mph with gusts of 35
to 45 mph.

* Minimum relative humidity... from 7 to 14 percent.

Precautionary/preparedness actions...

A Fire Weather Watch means that critical fire weather conditions
are possible. Listen for later forecasts and possible red flag
warnings.

Please notify field crews of this Fire Weather Watch.